sensor_id;sensor_type;location;lat;lon;timestamp;P1;durP1;ratioP1;P2;durP2;ratioP2
7477;SDS011;3780;42.424;25.636;2023-02-28T00:00:48;22.63;;;14.00;;
7477;SDS011;3780;42.424;25.636;2023-02-28T00:03:14;20.77;;;13.07;;
7477;SDS011;3780;42.424;25.636;2023-02-28T00:05:39;20.92;;;14.32;;
7477;SDS011;3780;42.424;25.636;2023-02-28T00:08:06;22.20;;;13.77;;
7477;SDS011;3780;42.424;25.636;2023-02-28T00:10:32;21.65;;;13.77;;
7477;SDS011;3780;42.424;25.636;2023-02-28T00:13:05;20.15;;;14.52;;
7477;SDS011;3780;42.424;25.636;2023-02-28T00:15:32;22.23;;;14.75;;
7477;SDS011;3780;42.424;25.636;2023-02-28T00:17:58;21.48;;;14.32;;
7477;SDS011;3780;42.424;25.636;2023-02-28T00:20:24;20.70;;;14.60;;
7477;SDS011;3780;42.424;25.636;2023-02-28T00:22:51;21.45;;;15.00;;
7477;SDS011;3780;42.424;25.636;2023-02-28T00:25:22;19.30;;;14.57;;
7477;SDS011;3780;42.424;25.636;2023-02-28T00:27:49;19.63;;;14.77;;
7477;SDS011;3780;42.424;25.636;2023-02-28T00:30:16;21.30;;;14.82;;
7477;SDS011;3780;42.424;25.636;2023-02-28T00:32:47;19.90;;;15.02;;
7477;SDS011;3780;42.424;25.636;2023-02-28T00:35:13;22.15;;;15.43;;
7477;SDS011;3780;42.424;25.636;2023-02-28T00:37:38;21.27;;;14.88;;
7477;SDS011;3780;42.424;25.636;2023-02-28T00:40:04;18.67;;;14.55;;
7477;SDS011;3780;42.424;25.636;2023-02-28T00:42:31;26.48;;;14.95;;
7477;SDS011;3780;42.424;25.636;2023-02-28T00:44:57;22.13;;;14.80;;
7477;SDS011;3780;42.424;25.636;2023-02-28T00:47:23;24.92;;;16.00;;
7477;SDS011;3780;42.424;25.636;2023-02-28T00:49:48;27.50;;;16.58;;
7477;SDS011;3780;42.424;25.636;2023-02-28T00:52:14;21.50;;;15.48;;
7477;SDS011;3780;42.424;25.636;2023-02-28T00:54:39;25.55;;;16.27;;
7477;SDS011;3780;42.424;25.636;2023-02-28T00:57:05;25.45;;;17.08;;
7477;SDS011;3780;42.424;25.636;2023-02-28T00:59:30;24.98;;;17.25;;
7477;SDS011;3780;42.424;25.636;2023-02-28T01:01:56;27.55;;;16.17;;
7477;SDS011;3780;42.424;25.636;2023-02-28T01:04:21;20.38;;;15.80;;
7477;SDS011;3780;42.424;25.636;2023-02-28T01:06:47;27.25;;;16.75;;
7477;SDS011;3780;42.424;25.636;2023-02-28T01:09:12;23.40;;;17.27;;
7477;SDS011;3780;42.424;25.636;2023-02-28T01:11:38;21.38;;;16.25;;
7477;SDS011;3780;42.424;25.636;2023-02-28T01:14:05;25.48;;;16.80;;
7477;SDS011;3780;42.424;25.636;2023-02-28T01:16:31;23.58;;;16.88;;
7477;SDS011;3780;42.424;25.636;2023-02-28T01:18:56;23.33;;;16.20;;
7477;SDS011;3780;42.424;25.636;2023-02-28T01:21:22;21.25;;;17.73;;
7477;SDS011;3780;42.424;25.636;2023-02-28T01:23:48;23.50;;;16.75;;
7477;SDS011;3780;42.424;25.636;2023-02-28T01:26:18;26.08;;;17.15;;
7477;SDS011;3780;42.424;25.636;2023-02-28T01:28:45;29.05;;;17.38;;
7477;SDS011;3780;42.424;25.636;2023-02-28T01:31:12;26.10;;;19.05;;
7477;SDS011;3780;42.424;25.636;2023-02-28T01:33:38;27.10;;;18.13;;
7477;SDS011;3780;42.424;25.636;2023-02-28T01:36:05;24.58;;;17.52;;
7477;SDS011;3780;42.424;25.636;2023-02-28T01:38:34;22.65;;;17.35;;
7477;SDS011;3780;42.424;25.636;2023-02-28T01:41:00;24.08;;;17.48;;
7477;SDS011;3780;42.424;25.636;2023-02-28T01:43:27;24.48;;;18.02;;
7477;SDS011;3780;42.424;25.636;2023-02-28T01:46:15;25.88;;;17.70;;
7477;SDS011;3780;42.424;25.636;2023-02-28T01:48:45;27.70;;;18.80;;
7477;SDS011;3780;42.424;25.636;2023-02-28T01:51:15;24.33;;;16.95;;
7477;SDS011;3780;42.424;25.636;2023-02-28T01:54:03;20.95;;;16.42;;
7477;SDS011;3780;42.424;25.636;2023-02-28T01:56:38;23.63;;;16.27;;
7477;SDS011;3780;42.424;25.636;2023-02-28T01:59:08;21.55;;;16.73;;
7477;SDS011;3780;42.424;25.636;2023-02-28T02:01:35;28.73;;;16.85;;
7477;SDS011;3780;42.424;25.636;2023-02-28T02:04:01;22.10;;;15.02;;
7477;SDS011;3780;42.424;25.636;2023-02-28T02:06:29;21.70;;;16.70;;
7477;SDS011;3780;42.424;25.636;2023-02-28T02:08:59;24.50;;;15.95;;
7477;SDS011;3780;42.424;25.636;2023-02-28T02:11:25;23.77;;;15.60;;
7477;SDS011;3780;42.424;25.636;2023-02-28T02:14:17;20.15;;;15.75;;
7477;SDS011;3780;42.424;25.636;2023-02-28T02:22:00;22.77;;;15.77;;
7477;SDS011;3780;42.424;25.636;2023-02-28T02:25:18;27.52;;;16.33;;
7477;SDS011;3780;42.424;25.636;2023-02-28T02:30:19;24.77;;;15.82;;
7477;SDS011;3780;42.424;25.636;2023-02-28T02:33:27;24.40;;;14.57;;
7477;SDS011;3780;42.424;25.636;2023-02-28T02:41:50;19.92;;;14.50;;
7477;SDS011;3780;42.424;25.636;2023-02-28T02:47:03;20.42;;;14.27;;
7477;SDS011;3780;42.424;25.636;2023-02-28T02:49:35;22.95;;;15.35;;
7477;SDS011;3780;42.424;25.636;2023-02-28T02:52:04;23.17;;;15.18;;
7477;SDS011;3780;42.424;25.636;2023-02-28T02:54:33;22.67;;;15.18;;
7477;SDS011;3780;42.424;25.636;2023-02-28T02:57:07;18.63;;;14.02;;
7477;SDS011;3780;42.424;25.636;2023-02-28T02:59:37;19.52;;;14.05;;
7477;SDS011;3780;42.424;25.636;2023-02-28T03:02:05;18.77;;;13.88;;
7477;SDS011;3780;42.424;25.636;2023-02-28T03:04:43;17.02;;;13.25;;
7477;SDS011;3780;42.424;25.636;2023-02-28T03:07:14;19.88;;;14.20;;
7477;SDS011;3780;42.424;25.636;2023-02-28T03:09:39;18.15;;;13.40;;
7477;SDS011;3780;42.424;25.636;2023-02-28T03:12:06;21.15;;;14.35;;
7477;SDS011;3780;42.424;25.636;2023-02-28T03:14:41;19.40;;;13.98;;
7477;SDS011;3780;42.424;25.636;2023-02-28T03:30:45;18.05;;;14.15;;
7477;SDS011;3780;42.424;25.636;2023-02-28T03:35:54;23.08;;;14.80;;
7477;SDS011;3780;42.424;25.636;2023-02-28T03:38:33;25.20;;;14.13;;
7477;SDS011;3780;42.424;25.636;2023-02-28T03:41:23;19.90;;;14.82;;
7477;SDS011;3780;42.424;25.636;2023-02-28T03:43:56;20.08;;;14.25;;
7477;SDS011;3780;42.424;25.636;2023-02-28T03:46:27;17.52;;;14.18;;
7477;SDS011;3780;42.424;25.636;2023-02-28T03:49:04;23.67;;;15.15;;
7477;SDS011;3780;42.424;25.636;2023-02-28T03:51:41;19.75;;;14.43;;
7477;SDS011;3780;42.424;25.636;2023-02-28T03:54:15;22.98;;;15.27;;
7477;SDS011;3780;42.424;25.636;2023-02-28T03:57:22;22.77;;;13.75;;
7477;SDS011;3780;42.424;25.636;2023-02-28T03:59:56;19.90;;;14.95;;
7477;SDS011;3780;42.424;25.636;2023-02-28T04:02:29;23.38;;;15.48;;
7477;SDS011;3780;42.424;25.636;2023-02-28T04:04:54;22.48;;;14.68;;
7477;SDS011;3780;42.424;25.636;2023-02-28T04:07:20;22.80;;;15.10;;
7477;SDS011;3780;42.424;25.636;2023-02-28T04:09:46;26.80;;;15.73;;
7477;SDS011;3780;42.424;25.636;2023-02-28T04:12:11;20.38;;;15.57;;
7477;SDS011;3780;42.424;25.636;2023-02-28T04:14:37;20.67;;;15.80;;
7477;SDS011;3780;42.424;25.636;2023-02-28T04:17:02;20.05;;;16.75;;
7477;SDS011;3780;42.424;25.636;2023-02-28T04:19:28;22.00;;;16.65;;
7477;SDS011;3780;42.424;25.636;2023-02-28T04:21:53;21.73;;;16.45;;
7477;SDS011;3780;42.424;25.636;2023-02-28T04:24:20;24.35;;;15.82;;
7477;SDS011;3780;42.424;25.636;2023-02-28T04:26:49;20.83;;;15.82;;
7477;SDS011;3780;42.424;25.636;2023-02-28T04:29:21;25.30;;;16.48;;
7477;SDS011;3780;42.424;25.636;2023-02-28T04:31:52;23.38;;;16.67;;
7477;SDS011;3780;42.424;25.636;2023-02-28T04:36:50;22.58;;;16.13;;
7477;SDS011;3780;42.424;25.636;2023-02-28T04:39:19;24.40;;;14.63;;
7477;SDS011;3780;42.424;25.636;2023-02-28T04:41:45;22.98;;;15.23;;
7477;SDS011;3780;42.424;25.636;2023-02-28T04:44:11;19.67;;;14.55;;
7477;SDS011;3780;42.424;25.636;2023-02-28T04:46:37;19.65;;;14.88;;
7477;SDS011;3780;42.424;25.636;2023-02-28T04:49:02;20.98;;;15.02;;
7477;SDS011;3780;42.424;25.636;2023-02-28T04:51:28;24.70;;;15.38;;
7477;SDS011;3780;42.424;25.636;2023-02-28T04:53:54;19.88;;;13.70;;
7477;SDS011;3780;42.424;25.636;2023-02-28T04:56:19;22.75;;;15.32;;
7477;SDS011;3780;42.424;25.636;2023-02-28T04:58:45;20.45;;;15.13;;
7477;SDS011;3780;42.424;25.636;2023-02-28T05:01:25;18.25;;;14.85;;
7477;SDS011;3780;42.424;25.636;2023-02-28T05:03:55;20.52;;;15.52;;
7477;SDS011;3780;42.424;25.636;2023-02-28T05:06:25;18.40;;;14.68;;
7477;SDS011;3780;42.424;25.636;2023-02-28T05:08:53;20.85;;;16.58;;
7477;SDS011;3780;42.424;25.636;2023-02-28T05:11:19;21.38;;;15.85;;
7477;SDS011;3780;42.424;25.636;2023-02-28T05:13:59;23.55;;;16.52;;
7477;SDS011;3780;42.424;25.636;2023-02-28T05:16:29;20.95;;;15.65;;
7477;SDS011;3780;42.424;25.636;2023-02-28T05:18:55;22.25;;;16.13;;
7477;SDS011;3780;42.424;25.636;2023-02-28T05:21:41;24.50;;;16.33;;
7477;SDS011;3780;42.424;25.636;2023-02-28T05:24:12;22.25;;;16.05;;
7477;SDS011;3780;42.424;25.636;2023-02-28T05:26:40;33.03;;;17.73;;
7477;SDS011;3780;42.424;25.636;2023-02-28T05:29:06;26.92;;;17.60;;
7477;SDS011;3780;42.424;25.636;2023-02-28T05:31:32;23.05;;;17.60;;
7477;SDS011;3780;42.424;25.636;2023-02-28T05:33:58;27.55;;;17.70;;
7477;SDS011;3780;42.424;25.636;2023-02-28T05:36:24;26.52;;;16.92;;
7477;SDS011;3780;42.424;25.636;2023-02-28T05:38:50;26.13;;;17.70;;
7477;SDS011;3780;42.424;25.636;2023-02-28T05:41:17;25.33;;;17.40;;
7477;SDS011;3780;42.424;25.636;2023-02-28T05:43:44;31.52;;;17.30;;
7477;SDS011;3780;42.424;25.636;2023-02-28T05:46:10;24.33;;;16.88;;
7477;SDS011;3780;42.424;25.636;2023-02-28T05:48:37;23.17;;;16.33;;
7477;SDS011;3780;42.424;25.636;2023-02-28T05:51:03;19.98;;;16.77;;
7477;SDS011;3780;42.424;25.636;2023-02-28T05:53:30;23.65;;;17.00;;
7477;SDS011;3780;42.424;25.636;2023-02-28T05:55:56;24.05;;;17.38;;
7477;SDS011;3780;42.424;25.636;2023-02-28T05:58:22;24.50;;;17.58;;
7477;SDS011;3780;42.424;25.636;2023-02-28T06:00:48;24.67;;;17.80;;
7477;SDS011;3780;42.424;25.636;2023-02-28T06:03:14;23.77;;;16.77;;
7477;SDS011;3780;42.424;25.636;2023-02-28T06:05:39;33.47;;;19.73;;
7477;SDS011;3780;42.424;25.636;2023-02-28T06:08:05;26.23;;;18.13;;
7477;SDS011;3780;42.424;25.636;2023-02-28T06:10:34;37.95;;;26.10;;
7477;SDS011;3780;42.424;25.636;2023-02-28T06:13:00;32.75;;;24.58;;
7477;SDS011;3780;42.424;25.636;2023-02-28T06:15:29;37.92;;;24.42;;
7477;SDS011;3780;42.424;25.636;2023-02-28T06:17:55;25.92;;;19.83;;
7477;SDS011;3780;42.424;25.636;2023-02-28T06:20:21;21.77;;;15.45;;
7477;SDS011;3780;42.424;25.636;2023-02-28T06:22:48;20.88;;;15.70;;
7477;SDS011;3780;42.424;25.636;2023-02-28T06:25:16;19.67;;;15.90;;
7477;SDS011;3780;42.424;25.636;2023-02-28T06:27:42;22.92;;;15.55;;
7477;SDS011;3780;42.424;25.636;2023-02-28T06:30:09;18.48;;;14.15;;
7477;SDS011;3780;42.424;25.636;2023-02-28T06:32:35;26.90;;;14.23;;
7477;SDS011;3780;42.424;25.636;2023-02-28T06:35:01;20.35;;;14.10;;
7477;SDS011;3780;42.424;25.636;2023-02-28T06:37:27;21.05;;;14.50;;
7477;SDS011;3780;42.424;25.636;2023-02-28T06:39:53;22.58;;;14.45;;
7477;SDS011;3780;42.424;25.636;2023-02-28T06:42:21;16.20;;;13.73;;
7477;SDS011;3780;42.424;25.636;2023-02-28T06:44:49;19.85;;;13.68;;
7477;SDS011;3780;42.424;25.636;2023-02-28T06:47:16;18.70;;;13.93;;
7477;SDS011;3780;42.424;25.636;2023-02-28T06:49:41;15.43;;;12.60;;
7477;SDS011;3780;42.424;25.636;2023-02-28T06:52:07;18.85;;;13.38;;
7477;SDS011;3780;42.424;25.636;2023-02-28T06:54:33;17.38;;;13.65;;
7477;SDS011;3780;42.424;25.636;2023-02-28T06:56:59;15.48;;;12.25;;
7477;SDS011;3780;42.424;25.636;2023-02-28T06:59:24;17.38;;;12.40;;
7477;SDS011;3780;42.424;25.636;2023-02-28T07:01:50;27.35;;;12.75;;
7477;SDS011;3780;42.424;25.636;2023-02-28T07:04:15;14.55;;;13.05;;
7477;SDS011;3780;42.424;25.636;2023-02-28T07:06:41;16.20;;;12.80;;
7477;SDS011;3780;42.424;25.636;2023-02-28T07:09:06;16.90;;;12.57;;
7477;SDS011;3780;42.424;25.636;2023-02-28T07:11:32;17.38;;;13.82;;
7477;SDS011;3780;42.424;25.636;2023-02-28T07:13:58;19.15;;;14.43;;
7477;SDS011;3780;42.424;25.636;2023-02-28T07:16:23;18.73;;;13.63;;
7477;SDS011;3780;42.424;25.636;2023-02-28T07:18:52;15.63;;;14.00;;
7477;SDS011;3780;42.424;25.636;2023-02-28T07:21:18;23.15;;;15.90;;
7477;SDS011;3780;42.424;25.636;2023-02-28T07:23:44;20.55;;;15.10;;
7477;SDS011;3780;42.424;25.636;2023-02-28T07:26:11;25.33;;;15.68;;
7477;SDS011;3780;42.424;25.636;2023-02-28T07:28:39;18.08;;;14.30;;
7477;SDS011;3780;42.424;25.636;2023-02-28T07:31:08;19.10;;;13.90;;
7477;SDS011;3780;42.424;25.636;2023-02-28T07:33:34;19.27;;;13.75;;
7477;SDS011;3780;42.424;25.636;2023-02-28T07:36:04;27.67;;;16.33;;
7477;SDS011;3780;42.424;25.636;2023-02-28T07:38:33;26.65;;;17.02;;
7477;SDS011;3780;42.424;25.636;2023-02-28T07:41:00;26.58;;;15.80;;
7477;SDS011;3780;42.424;25.636;2023-02-28T07:43:29;16.40;;;14.52;;
7477;SDS011;3780;42.424;25.636;2023-02-28T07:45:55;20.50;;;15.13;;
7477;SDS011;3780;42.424;25.636;2023-02-28T07:48:21;22.48;;;14.63;;
7477;SDS011;3780;42.424;25.636;2023-02-28T07:50:54;20.98;;;14.52;;
7477;SDS011;3780;42.424;25.636;2023-02-28T07:53:21;19.23;;;14.30;;
7477;SDS011;3780;42.424;25.636;2023-02-28T07:55:46;20.63;;;14.70;;
7477;SDS011;3780;42.424;25.636;2023-02-28T07:58:11;17.08;;;13.80;;
7477;SDS011;3780;42.424;25.636;2023-02-28T08:00:37;17.52;;;15.10;;
7477;SDS011;3780;42.424;25.636;2023-02-28T08:03:03;25.85;;;18.33;;
7477;SDS011;3780;42.424;25.636;2023-02-28T08:05:28;20.33;;;15.63;;
7477;SDS011;3780;42.424;25.636;2023-02-28T08:07:55;18.00;;;14.60;;
7477;SDS011;3780;42.424;25.636;2023-02-28T08:10:21;19.85;;;15.07;;
7477;SDS011;3780;42.424;25.636;2023-02-28T08:12:47;19.23;;;15.25;;
7477;SDS011;3780;42.424;25.636;2023-02-28T08:15:12;24.63;;;15.50;;
7477;SDS011;3780;42.424;25.636;2023-02-28T08:17:38;19.15;;;14.95;;
7477;SDS011;3780;42.424;25.636;2023-02-28T08:20:04;19.73;;;15.00;;
7477;SDS011;3780;42.424;25.636;2023-02-28T08:22:29;18.55;;;15.02;;
7477;SDS011;3780;42.424;25.636;2023-02-28T08:24:55;21.20;;;15.63;;
7477;SDS011;3780;42.424;25.636;2023-02-28T08:27:20;21.02;;;15.90;;
7477;SDS011;3780;42.424;25.636;2023-02-28T08:29:46;18.73;;;15.80;;
7477;SDS011;3780;42.424;25.636;2023-02-28T08:32:12;21.30;;;16.55;;
7477;SDS011;3780;42.424;25.636;2023-02-28T08:34:38;23.50;;;16.45;;
7477;SDS011;3780;42.424;25.636;2023-02-28T08:37:05;20.02;;;16.05;;
7477;SDS011;3780;42.424;25.636;2023-02-28T08:39:33;20.55;;;15.77;;
7477;SDS011;3780;42.424;25.636;2023-02-28T08:42:01;17.90;;;14.27;;
7477;SDS011;3780;42.424;25.636;2023-02-28T08:44:27;17.10;;;15.23;;
7477;SDS011;3780;42.424;25.636;2023-02-28T08:46:53;20.20;;;14.55;;
7477;SDS011;3780;42.424;25.636;2023-02-28T08:49:18;20.10;;;14.55;;
7477;SDS011;3780;42.424;25.636;2023-02-28T08:51:44;19.77;;;13.48;;
7477;SDS011;3780;42.424;25.636;2023-02-28T08:54:09;24.92;;;13.93;;
7477;SDS011;3780;42.424;25.636;2023-02-28T08:56:37;19.33;;;13.82;;
7477;SDS011;3780;42.424;25.636;2023-02-28T08:59:03;19.80;;;13.93;;
7477;SDS011;3780;42.424;25.636;2023-02-28T09:01:29;19.20;;;14.30;;
7477;SDS011;3780;42.424;25.636;2023-02-28T09:03:55;16.80;;;13.70;;
7477;SDS011;3780;42.424;25.636;2023-02-28T09:06:22;18.23;;;12.77;;
7477;SDS011;3780;42.424;25.636;2023-02-28T09:08:49;22.80;;;14.65;;
7477;SDS011;3780;42.424;25.636;2023-02-28T09:11:15;16.52;;;13.27;;
7477;SDS011;3780;42.424;25.636;2023-02-28T09:13:42;15.63;;;13.27;;
7477;SDS011;3780;42.424;25.636;2023-02-28T09:16:09;15.48;;;12.35;;
7477;SDS011;3780;42.424;25.636;2023-02-28T09:18:37;17.58;;;12.55;;
7477;SDS011;3780;42.424;25.636;2023-02-28T09:21:07;15.63;;;12.25;;
7477;SDS011;3780;42.424;25.636;2023-02-28T09:23:34;16.13;;;12.88;;
7477;SDS011;3780;42.424;25.636;2023-02-28T09:26:00;23.55;;;17.35;;
7477;SDS011;3780;42.424;25.636;2023-02-28T09:28:25;19.73;;;13.02;;
7477;SDS011;3780;42.424;25.636;2023-02-28T09:30:53;20.42;;;12.88;;
7477;SDS011;3780;42.424;25.636;2023-02-28T09:33:20;22.13;;;12.52;;
7477;SDS011;3780;42.424;25.636;2023-02-28T09:35:49;17.27;;;13.15;;
7477;SDS011;3780;42.424;25.636;2023-02-28T09:38:16;17.75;;;12.95;;
7477;SDS011;3780;42.424;25.636;2023-02-28T09:40:52;14.07;;;12.50;;
7477;SDS011;3780;42.424;25.636;2023-02-28T09:43:22;16.98;;;13.13;;
7477;SDS011;3780;42.424;25.636;2023-02-28T09:45:51;20.63;;;13.52;;
7477;SDS011;3780;42.424;25.636;2023-02-28T09:48:28;16.45;;;13.23;;
7477;SDS011;3780;42.424;25.636;2023-02-28T09:51:04;21.08;;;14.15;;
7477;SDS011;3780;42.424;25.636;2023-02-28T09:53:53;20.30;;;12.70;;
7477;SDS011;3780;42.424;25.636;2023-02-28T09:56:24;15.88;;;12.23;;
7477;SDS011;3780;42.424;25.636;2023-02-28T15:26:04;24.75;;;17.40;;
